Skip Navigation Links
NOAA logo - Click to go to the NOAA homepage
NOAA's National Weather Service
Alaska Aviation Weather Unit
  NWS logo - Click to go to the NWS homepage
Left Navbar Graphic     21 AKDT = 05 GMT

   
NOAA is celebrating 200 years of science, service, and stewardship. Visit the NOAA 200th celebration Web site to learn more.
USA.gov is the U.S. Government's official Web portal to all Federal, state and local government Web resources and services.
Facebook
NWS on Facebook

Important Change Regarding the AAWU Web Presence

 

Over the last several months, the AAWU has been working to navigate its webpages to a nationally supported server. Security, as well as other needs, have necessitated the change.  In the process, we have made an effort to enhance the functionality of our website, as well as some of our products. As of June 27, 2017, aawu.arh.noaa.gov will be discontinued. The new AAWU web address is weather.gov/aawu. It is now live and will run in-parallel with the old site until it is discontinued. Please send any feedback or questions regarding the new webpages to nws.ar.aawu.webauthors@noaa.gov.  Thank you for your patience during this time of transition.
AAWU Home :: Display TAF Add Bookmark
TESTM WHMA2 252319Z AUTO 00000KT SKC 15/11 A2992 RMK A02 SLP130 T01520108

TESTM WHMA2 252349Z AUTO 0503KT SKC 15/10 A2991 RMK A02 SLP128 T01540104

TESTM WHMA2 260019Z AUTO 0404KT FEW220 16/10 A2991 RMK A02 SLP127 T01570103

TESTM WHMA2 260050Z AUTO 0705KT BKN150 16/10 A2990 RMK A02 SLP126 T01580102

TESTM WHMA2 260119Z AUTO 0303KT BKN130 16/10 A2990 RMK A02 SLP125 T01590103

TESTM WHMA2 260149Z AUTO 00000KT OVC110 16/11 A2990 RMK A02 SLP125 T01590108

TESTM WHMA2 260219Z AUTO 00000KT BKN110 BKN140 16/10 A2989 RMK A02 SLP122 T01610101

TESTM WHMA2 260249Z AUTO 3104KT BKN110 BKN150 16/11 A2989 RMK A02 SLP122 T01610110

TESTM WHMA2 260319Z AUTO 00000KT FEW100 BKN120 16/10 A2989 RMK A02 SLP121 T01600099

TESTM WHMA2 260349Z AUTO 00000KT FEW100 SCT220 16/11 A2989 RMK A02 SLP122 T01640109

TESTM WHMA2 260419Z AUTO 00000KT FEW100 SCT210 16/11 A2989 RMK A02 SLP123 T01630106

TESTM WHMA2 260449Z AUTO 00000KT SCT100 16/10 A2989 RMK A02 SLP122 T01570105

TESTM WHMA2 260519Z AUTO 00000KT FEW110 BKN130 16/10 A2989 RMK A02 SLP122 T01560103


NOAA's National Weather Service
Alaska Aviation Weather Unit
6930 Sand Lake Road
Anchorage, AK 99502-1845
Disclaimer
Credits
Glossary
Privacy Policy
About Us
Career Opportunities
Contact AAWU Internet Services Site last modified: April, 17th 2012